sensor_id;sensor_type;location;lat;lon;timestamp;P1;durP1;ratioP1;P2;durP2;ratioP2
60714;SDS011;46564;53.096;8.246;2023-07-28T00:00:27;6.32;;;2.85;;
60714;SDS011;46564;53.096;8.246;2023-07-28T00:05:29;5.10;;;2.55;;
60714;SDS011;46564;53.096;8.246;2023-07-28T00:10:33;7.88;;;3.08;;
60714;SDS011;46564;53.096;8.246;2023-07-28T00:15:35;6.88;;;3.35;;
60714;SDS011;46564;53.096;8.246;2023-07-28T00:20:36;10.95;;;3.85;;
60714;SDS011;46564;53.096;8.246;2023-07-28T00:25:38;8.40;;;4.05;;
60714;SDS011;46564;53.096;8.246;2023-07-28T00:30:39;9.20;;;4.25;;
60714;SDS011;46564;53.096;8.246;2023-07-28T00:35:41;9.55;;;5.30;;
60714;SDS011;46564;53.096;8.246;2023-07-28T00:40:42;9.48;;;4.82;;
60714;SDS011;46564;53.096;8.246;2023-07-28T00:45:44;12.60;;;6.43;;
60714;SDS011;46564;53.096;8.246;2023-07-28T00:50:45;15.93;;;6.35;;
60714;SDS011;46564;53.096;8.246;2023-07-28T00:55:49;14.82;;;6.25;;
60714;SDS011;46564;53.096;8.246;2023-07-28T01:00:51;14.73;;;6.22;;
60714;SDS011;46564;53.096;8.246;2023-07-28T01:06:10;14.90;;;6.25;;
60714;SDS011;46564;53.096;8.246;2023-07-28T01:11:13;17.88;;;6.38;;
60714;SDS011;46564;53.096;8.246;2023-07-28T01:16:15;19.27;;;6.57;;
60714;SDS011;46564;53.096;8.246;2023-07-28T01:21:20;15.10;;;6.10;;
60714;SDS011;46564;53.096;8.246;2023-07-28T01:26:29;14.38;;;6.93;;
60714;SDS011;46564;53.096;8.246;2023-07-28T01:31:38;12.20;;;6.43;;
60714;SDS011;46564;53.096;8.246;2023-07-28T01:36:40;8.85;;;4.28;;
60714;SDS011;46564;53.096;8.246;2023-07-28T01:41:42;8.23;;;3.03;;
60714;SDS011;46564;53.096;8.246;2023-07-28T01:46:43;6.80;;;2.60;;
60714;SDS011;46564;53.096;8.246;2023-07-28T01:51:45;8.32;;;3.20;;
60714;SDS011;46564;53.096;8.246;2023-07-28T01:56:47;7.53;;;3.60;;
60714;SDS011;46564;53.096;8.246;2023-07-28T02:01:48;10.85;;;4.18;;
60714;SDS011;46564;53.096;8.246;2023-07-28T02:06:52;8.82;;;4.25;;
60714;SDS011;46564;53.096;8.246;2023-07-28T02:11:53;15.40;;;5.13;;
60714;SDS011;46564;53.096;8.246;2023-07-28T02:16:55;9.82;;;5.35;;
60714;SDS011;46564;53.096;8.246;2023-07-28T02:21:57;10.90;;;5.22;;
60714;SDS011;46564;53.096;8.246;2023-07-28T02:26:58;10.65;;;5.65;;
60714;SDS011;46564;53.096;8.246;2023-07-28T02:32:00;15.32;;;6.05;;
60714;SDS011;46564;53.096;8.246;2023-07-28T02:37:01;13.02;;;5.72;;
60714;SDS011;46564;53.096;8.246;2023-07-28T02:42:03;16.63;;;7.57;;
60714;SDS011;46564;53.096;8.246;2023-07-28T02:47:04;12.15;;;6.82;;
60714;SDS011;46564;53.096;8.246;2023-07-28T02:52:06;16.67;;;7.25;;
60714;SDS011;46564;53.096;8.246;2023-07-28T02:57:08;14.82;;;7.20;;
60714;SDS011;46564;53.096;8.246;2023-07-28T03:02:09;13.55;;;7.43;;
60714;SDS011;46564;53.096;8.246;2023-07-28T03:07:11;14.80;;;7.38;;
60714;SDS011;46564;53.096;8.246;2023-07-28T03:12:12;13.98;;;7.75;;
60714;SDS011;46564;53.096;8.246;2023-07-28T03:17:14;14.93;;;7.55;;
60714;SDS011;46564;53.096;8.246;2023-07-28T03:22:15;15.40;;;7.65;;
60714;SDS011;46564;53.096;8.246;2023-07-28T03:27:17;14.32;;;8.50;;
60714;SDS011;46564;53.096;8.246;2023-07-28T03:32:19;32.00;;;9.45;;
60714;SDS011;46564;53.096;8.246;2023-07-28T03:37:20;16.08;;;8.05;;
60714;SDS011;46564;53.096;8.246;2023-07-28T03:42:22;15.60;;;8.20;;
60714;SDS011;46564;53.096;8.246;2023-07-28T03:47:23;18.85;;;8.27;;
60714;SDS011;46564;53.096;8.246;2023-07-28T03:52:25;19.33;;;8.70;;
60714;SDS011;46564;53.096;8.246;2023-07-28T03:57:26;17.85;;;9.25;;
60714;SDS011;46564;53.096;8.246;2023-07-28T04:02:28;18.25;;;9.45;;
60714;SDS011;46564;53.096;8.246;2023-07-28T04:07:29;18.05;;;8.57;;
60714;SDS011;46564;53.096;8.246;2023-07-28T04:12:31;25.02;;;8.82;;
60714;SDS011;46564;53.096;8.246;2023-07-28T04:17:32;17.52;;;8.90;;
60714;SDS011;46564;53.096;8.246;2023-07-28T04:22:34;18.52;;;9.35;;
60714;SDS011;46564;53.096;8.246;2023-07-28T04:27:36;16.35;;;8.68;;
60714;SDS011;46564;53.096;8.246;2023-07-28T04:32:37;18.60;;;9.02;;
60714;SDS011;46564;53.096;8.246;2023-07-28T04:37:39;18.08;;;7.97;;
60714;SDS011;46564;53.096;8.246;2023-07-28T04:42:40;16.67;;;7.60;;
60714;SDS011;46564;53.096;8.246;2023-07-28T04:47:42;17.13;;;9.00;;
60714;SDS011;46564;53.096;8.246;2023-07-28T04:52:44;18.00;;;8.10;;
60714;SDS011;46564;53.096;8.246;2023-07-28T04:57:45;18.02;;;9.30;;
60714;SDS011;46564;53.096;8.246;2023-07-28T05:02:47;17.33;;;8.70;;
60714;SDS011;46564;53.096;8.246;2023-07-28T05:07:48;20.67;;;9.93;;
60714;SDS011;46564;53.096;8.246;2023-07-28T05:12:50;23.75;;;9.05;;
60714;SDS011;46564;53.096;8.246;2023-07-28T05:17:51;19.92;;;10.07;;
60714;SDS011;46564;53.096;8.246;2023-07-28T05:22:53;20.88;;;9.55;;
60714;SDS011;46564;53.096;8.246;2023-07-28T05:27:54;22.65;;;10.05;;
60714;SDS011;46564;53.096;8.246;2023-07-28T05:32:56;22.63;;;9.77;;
60714;SDS011;46564;53.096;8.246;2023-07-28T05:37:57;23.67;;;10.35;;
60714;SDS011;46564;53.096;8.246;2023-07-28T05:42:59;22.35;;;10.45;;
60714;SDS011;46564;53.096;8.246;2023-07-28T05:48:00;20.52;;;10.10;;
60714;SDS011;46564;53.096;8.246;2023-07-28T05:53:02;21.83;;;10.50;;
60714;SDS011;46564;53.096;8.246;2023-07-28T05:58:03;27.02;;;10.73;;
60714;SDS011;46564;53.096;8.246;2023-07-28T06:03:04;19.83;;;10.25;;
60714;SDS011;46564;53.096;8.246;2023-07-28T06:08:06;23.00;;;11.73;;
60714;SDS011;46564;53.096;8.246;2023-07-28T06:13:07;23.33;;;11.98;;
60714;SDS011;46564;53.096;8.246;2023-07-28T06:18:09;27.65;;;12.05;;
60714;SDS011;46564;53.096;8.246;2023-07-28T06:23:11;21.50;;;10.40;;
60714;SDS011;46564;53.096;8.246;2023-07-28T06:28:12;20.23;;;11.23;;
60714;SDS011;46564;53.096;8.246;2023-07-28T06:33:14;24.98;;;11.85;;
60714;SDS011;46564;53.096;8.246;2023-07-28T06:38:16;27.67;;;12.15;;
60714;SDS011;46564;53.096;8.246;2023-07-28T06:43:17;27.05;;;12.70;;
60714;SDS011;46564;53.096;8.246;2023-07-28T06:48:18;21.10;;;11.65;;
60714;SDS011;46564;53.096;8.246;2023-07-28T06:53:20;22.08;;;11.60;;
60714;SDS011;46564;53.096;8.246;2023-07-28T06:58:22;25.85;;;12.20;;
60714;SDS011;46564;53.096;8.246;2023-07-28T07:03:23;25.27;;;12.75;;
60714;SDS011;46564;53.096;8.246;2023-07-28T07:08:24;26.65;;;11.75;;
60714;SDS011;46564;53.096;8.246;2023-07-28T07:13:26;23.05;;;12.40;;
60714;SDS011;46564;53.096;8.246;2023-07-28T07:18:28;25.38;;;12.93;;
60714;SDS011;46564;53.096;8.246;2023-07-28T07:23:29;21.42;;;11.55;;
60714;SDS011;46564;53.096;8.246;2023-07-28T07:28:31;22.88;;;12.55;;
60714;SDS011;46564;53.096;8.246;2023-07-28T07:33:32;23.80;;;11.25;;
60714;SDS011;46564;53.096;8.246;2023-07-28T07:38:34;26.48;;;11.05;;
60714;SDS011;46564;53.096;8.246;2023-07-28T07:43:35;19.90;;;11.23;;
60714;SDS011;46564;53.096;8.246;2023-07-28T07:48:36;20.60;;;11.18;;
60714;SDS011;46564;53.096;8.246;2023-07-28T07:53:38;27.02;;;11.88;;
60714;SDS011;46564;53.096;8.246;2023-07-28T07:58:39;26.65;;;11.80;;
60714;SDS011;46564;53.096;8.246;2023-07-28T08:03:41;37.03;;;14.73;;
60714;SDS011;46564;53.096;8.246;2023-07-28T08:08:42;20.58;;;10.00;;
60714;SDS011;46564;53.096;8.246;2023-07-28T08:13:44;18.40;;;10.57;;
60714;SDS011;46564;53.096;8.246;2023-07-28T08:18:47;21.48;;;10.50;;
60714;SDS011;46564;53.096;8.246;2023-07-28T08:23:49;21.90;;;11.20;;
60714;SDS011;46564;53.096;8.246;2023-07-28T08:28:50;19.83;;;10.48;;
60714;SDS011;46564;53.096;8.246;2023-07-28T08:33:51;21.30;;;10.52;;
60714;SDS011;46564;53.096;8.246;2023-07-28T08:38:53;19.55;;;9.23;;
60714;SDS011;46564;53.096;8.246;2023-07-28T08:43:54;17.38;;;9.38;;
60714;SDS011;46564;53.096;8.246;2023-07-28T08:48:56;18.65;;;8.48;;
60714;SDS011;46564;53.096;8.246;2023-07-28T08:53:58;18.95;;;8.55;;
60714;SDS011;46564;53.096;8.246;2023-07-28T08:59:00;16.90;;;8.10;;
60714;SDS011;46564;53.096;8.246;2023-07-28T09:04:01;20.48;;;7.47;;
60714;SDS011;46564;53.096;8.246;2023-07-28T09:09:05;11.48;;;7.30;;
60714;SDS011;46564;53.096;8.246;2023-07-28T09:14:07;12.23;;;5.57;;
60714;SDS011;46564;53.096;8.246;2023-07-28T09:19:13;13.20;;;5.00;;
60714;SDS011;46564;53.096;8.246;2023-07-28T09:24:15;11.55;;;5.07;;
60714;SDS011;46564;53.096;8.246;2023-07-28T09:29:17;10.23;;;4.30;;
60714;SDS011;46564;53.096;8.246;2023-07-28T09:34:23;12.35;;;4.30;;
60714;SDS011;46564;53.096;8.246;2023-07-28T09:39:28;7.90;;;3.57;;
60714;SDS011;46564;53.096;8.246;2023-07-28T09:44:30;8.82;;;4.13;;
60714;SDS011;46564;53.096;8.246;2023-07-28T09:54:42;7.68;;;3.60;;
60714;SDS011;46564;53.096;8.246;2023-07-28T10:04:48;8.27;;;3.33;;
60714;SDS011;46564;53.096;8.246;2023-07-28T10:09:49;10.45;;;3.63;;
60714;SDS011;46564;53.096;8.246;2023-07-28T10:14:59;9.30;;;2.90;;
60714;SDS011;46564;53.096;8.246;2023-07-28T10:20:03;6.93;;;2.38;;
60714;SDS011;46564;53.096;8.246;2023-07-28T10:25:05;5.57;;;2.20;;
60714;SDS011;46564;53.096;8.246;2023-07-28T10:30:11;7.07;;;2.75;;
60714;SDS011;46564;53.096;8.246;2023-07-28T10:45:32;5.00;;;2.50;;
60714;SDS011;46564;53.096;8.246;2023-07-28T10:50:33;4.28;;;2.55;;
60714;SDS011;46564;53.096;8.246;2023-07-28T10:55:35;5.70;;;2.17;;
60714;SDS011;46564;53.096;8.246;2023-07-28T11:00:36;7.60;;;2.80;;
60714;SDS011;46564;53.096;8.246;2023-07-28T11:05:38;4.00;;;2.25;;
60714;SDS011;46564;53.096;8.246;2023-07-28T11:10:39;9.15;;;3.50;;
60714;SDS011;46564;53.096;8.246;2023-07-28T11:15:42;7.50;;;2.50;;
60714;SDS011;46564;53.096;8.246;2023-07-28T11:20:44;4.75;;;2.33;;
60714;SDS011;46564;53.096;8.246;2023-07-28T11:25:46;4.97;;;2.63;;
60714;SDS011;46564;53.096;8.246;2023-07-28T11:30:47;4.80;;;2.15;;
60714;SDS011;46564;53.096;8.246;2023-07-28T11:35:49;2.10;;;1.20;;
60714;SDS011;46564;53.096;8.246;2023-07-28T11:40:50;2.08;;;1.20;;
60714;SDS011;46564;53.096;8.246;2023-07-28T11:45:53;2.92;;;1.30;;
60714;SDS011;46564;53.096;8.246;2023-07-28T11:50:54;2.92;;;1.52;;
60714;SDS011;46564;53.096;8.246;2023-07-28T11:55:55;6.43;;;1.30;;
60714;SDS011;46564;53.096;8.246;2023-07-28T12:11:11;2.33;;;1.10;;
60714;SDS011;46564;53.096;8.246;2023-07-28T12:16:31;3.30;;;1.40;;
60714;SDS011;46564;53.096;8.246;2023-07-28T12:21:43;3.05;;;1.30;;
60714;SDS011;46564;53.096;8.246;2023-07-28T12:26:45;2.65;;;1.42;;
60714;SDS011;46564;53.096;8.246;2023-07-28T12:31:47;3.70;;;1.40;;
60714;SDS011;46564;53.096;8.246;2023-07-28T12:36:49;1.63;;;1.15;;
60714;SDS011;46564;53.096;8.246;2023-07-28T12:41:55;1.42;;;1.13;;
60714;SDS011;46564;53.096;8.246;2023-07-28T12:46:59;3.33;;;1.25;;
60714;SDS011;46564;53.096;8.246;2023-07-28T12:52:03;3.63;;;1.30;;
60714;SDS011;46564;53.096;8.246;2023-07-28T12:57:06;3.03;;;1.30;;
60714;SDS011;46564;53.096;8.246;2023-07-28T13:02:10;2.05;;;1.10;;
60714;SDS011;46564;53.096;8.246;2023-07-28T13:07:12;2.92;;;1.15;;
60714;SDS011;46564;53.096;8.246;2023-07-28T13:12:16;1.58;;;1.17;;
60714;SDS011;46564;53.096;8.246;2023-07-28T13:17:20;1.63;;;1.30;;
60714;SDS011;46564;53.096;8.246;2023-07-28T13:22:22;2.55;;;1.20;;
60714;SDS011;46564;53.096;8.246;2023-07-28T13:27:24;1.38;;;0.90;;
60714;SDS011;46564;53.096;8.246;2023-07-28T13:32:25;3.50;;;1.20;;
60714;SDS011;46564;53.096;8.246;2023-07-28T13:42:28;4.00;;;1.52;;
60714;SDS011;46564;53.096;8.246;2023-07-28T13:47:29;3.33;;;1.23;;
60714;SDS011;46564;53.096;8.246;2023-07-28T13:52:31;3.63;;;1.30;;
60714;SDS011;46564;53.096;8.246;2023-07-28T13:57:32;2.58;;;1.20;;
60714;SDS011;46564;53.096;8.246;2023-07-28T14:02:37;4.28;;;1.30;;
60714;SDS011;46564;53.096;8.246;2023-07-28T14:07:39;3.38;;;1.55;;
60714;SDS011;46564;53.096;8.246;2023-07-28T14:12:41;3.97;;;1.30;;
60714;SDS011;46564;53.096;8.246;2023-07-28T14:17:42;2.22;;;1.40;;
60714;SDS011;46564;53.096;8.246;2023-07-28T14:22:44;2.47;;;1.30;;
60714;SDS011;46564;53.096;8.246;2023-07-28T14:27:45;6.93;;;1.65;;
60714;SDS011;46564;53.096;8.246;2023-07-28T14:32:46;8.15;;;1.40;;
60714;SDS011;46564;53.096;8.246;2023-07-28T14:37:48;7.78;;;2.40;;
60714;SDS011;46564;53.096;8.246;2023-07-28T14:42:49;3.65;;;1.88;;
60714;SDS011;46564;53.096;8.246;2023-07-28T14:47:51;5.53;;;2.35;;
60714;SDS011;46564;53.096;8.246;2023-07-28T14:52:52;10.00;;;2.80;;
60714;SDS011;46564;53.096;8.246;2023-07-28T14:57:54;7.45;;;2.75;;
60714;SDS011;46564;53.096;8.246;2023-07-28T15:02:55;7.20;;;3.17;;
60714;SDS011;46564;53.096;8.246;2023-07-28T15:07:57;6.70;;;3.15;;
60714;SDS011;46564;53.096;8.246;2023-07-28T15:12:59;6.85;;;3.20;;
60714;SDS011;46564;53.096;8.246;2023-07-28T15:18:00;7.00;;;2.88;;
60714;SDS011;46564;53.096;8.246;2023-07-28T15:23:02;6.30;;;2.65;;
60714;SDS011;46564;53.096;8.246;2023-07-28T15:28:04;5.32;;;2.75;;
60714;SDS011;46564;53.096;8.246;2023-07-28T15:33:05;4.97;;;2.83;;
60714;SDS011;46564;53.096;8.246;2023-07-28T15:38:07;5.38;;;2.60;;
60714;SDS011;46564;53.096;8.246;2023-07-28T15:43:08;4.70;;;2.67;;
60714;SDS011;46564;53.096;8.246;2023-07-28T15:48:10;6.38;;;2.80;;
60714;SDS011;46564;53.096;8.246;2023-07-28T15:53:11;6.53;;;2.58;;
60714;SDS011;46564;53.096;8.246;2023-07-28T15:58:12;6.15;;;2.70;;
60714;SDS011;46564;53.096;8.246;2023-07-28T16:03:14;5.50;;;2.70;;
60714;SDS011;46564;53.096;8.246;2023-07-28T16:08:15;7.43;;;2.80;;
60714;SDS011;46564;53.096;8.246;2023-07-28T16:13:17;5.97;;;2.75;;
60714;SDS011;46564;53.096;8.246;2023-07-28T16:18:18;5.03;;;2.70;;
60714;SDS011;46564;53.096;8.246;2023-07-28T16:23:20;5.55;;;2.55;;
60714;SDS011;46564;53.096;8.246;2023-07-28T16:28:22;5.60;;;2.42;;
60714;SDS011;46564;53.096;8.246;2023-07-28T16:33:23;9.30;;;4.55;;
60714;SDS011;46564;53.096;8.246;2023-07-28T16:38:24;11.45;;;2.63;;
60714;SDS011;46564;53.096;8.246;2023-07-28T16:43:26;5.93;;;2.35;;
60714;SDS011;46564;53.096;8.246;2023-07-28T16:48:27;5.32;;;2.45;;
60714;SDS011;46564;53.096;8.246;2023-07-28T16:53:29;8.73;;;3.00;;
60714;SDS011;46564;53.096;8.246;2023-07-28T16:58:30;5.07;;;2.35;;
60714;SDS011;46564;53.096;8.246;2023-07-28T17:03:32;4.38;;;2.00;;
60714;SDS011;46564;53.096;8.246;2023-07-28T17:08:33;4.75;;;2.05;;
60714;SDS011;46564;53.096;8.246;2023-07-28T17:13:34;4.88;;;1.75;;
60714;SDS011;46564;53.096;8.246;2023-07-28T17:18:36;3.58;;;1.70;;
60714;SDS011;46564;53.096;8.246;2023-07-28T17:23:37;2.90;;;1.40;;
60714;SDS011;46564;53.096;8.246;2023-07-28T17:28:39;6.25;;;2.00;;
60714;SDS011;46564;53.096;8.246;2023-07-28T17:33:40;3.38;;;1.77;;
60714;SDS011;46564;53.096;8.246;2023-07-28T17:38:42;3.22;;;1.80;;
60714;SDS011;46564;53.096;8.246;2023-07-28T17:43:43;6.72;;;2.40;;
60714;SDS011;46564;53.096;8.246;2023-07-28T17:48:44;4.00;;;2.10;;
60714;SDS011;46564;53.096;8.246;2023-07-28T17:53:46;5.30;;;2.10;;
60714;SDS011;46564;53.096;8.246;2023-07-28T17:58:47;4.63;;;2.20;;
60714;SDS011;46564;53.096;8.246;2023-07-28T18:03:49;6.22;;;2.63;;
60714;SDS011;46564;53.096;8.246;2023-07-28T18:08:50;3.95;;;2.20;;
60714;SDS011;46564;53.096;8.246;2023-07-28T18:13:52;5.88;;;3.30;;
60714;SDS011;46564;53.096;8.246;2023-07-28T18:18:53;7.30;;;2.53;;
60714;SDS011;46564;53.096;8.246;2023-07-28T18:23:54;4.38;;;2.70;;
60714;SDS011;46564;53.096;8.246;2023-07-28T18:28:56;5.47;;;2.80;;
60714;SDS011;46564;53.096;8.246;2023-07-28T18:33:57;7.45;;;2.70;;
60714;SDS011;46564;53.096;8.246;2023-07-28T18:38:59;10.52;;;2.85;;
60714;SDS011;46564;53.096;8.246;2023-07-28T18:44:00;5.88;;;2.70;;
60714;SDS011;46564;53.096;8.246;2023-07-28T18:49:02;6.35;;;2.80;;
60714;SDS011;46564;53.096;8.246;2023-07-28T18:54:05;5.82;;;3.45;;
60714;SDS011;46564;53.096;8.246;2023-07-28T18:59:10;5.65;;;3.20;;
60714;SDS011;46564;53.096;8.246;2023-07-28T19:04:11;4.25;;;2.72;;
60714;SDS011;46564;53.096;8.246;2023-07-28T19:09:13;7.55;;;3.13;;
60714;SDS011;46564;53.096;8.246;2023-07-28T19:14:15;6.18;;;3.10;;
60714;SDS011;46564;53.096;8.246;2023-07-28T19:19:16;5.93;;;2.85;;
60714;SDS011;46564;53.096;8.246;2023-07-28T19:24:18;8.20;;;3.72;;
60714;SDS011;46564;53.096;8.246;2023-07-28T19:29:19;11.40;;;3.45;;
60714;SDS011;46564;53.096;8.246;2023-07-28T19:34:21;7.68;;;3.10;;
60714;SDS011;46564;53.096;8.246;2023-07-28T19:39:23;5.88;;;3.55;;
60714;SDS011;46564;53.096;8.246;2023-07-28T19:44:25;8.15;;;3.35;;
60714;SDS011;46564;53.096;8.246;2023-07-28T19:49:42;7.72;;;3.08;;
60714;SDS011;46564;53.096;8.246;2023-07-28T19:54:43;8.88;;;3.47;;
60714;SDS011;46564;53.096;8.246;2023-07-28T19:59:45;6.18;;;3.47;;
60714;SDS011;46564;53.096;8.246;2023-07-28T20:04:46;7.45;;;3.55;;
60714;SDS011;46564;53.096;8.246;2023-07-28T20:09:47;7.25;;;2.65;;
60714;SDS011;46564;53.096;8.246;2023-07-28T20:14:49;5.85;;;3.25;;
60714;SDS011;46564;53.096;8.246;2023-07-28T20:19:51;6.90;;;3.50;;
60714;SDS011;46564;53.096;8.246;2023-07-28T20:24:53;6.22;;;3.20;;
60714;SDS011;46564;53.096;8.246;2023-07-28T20:29:54;7.53;;;3.67;;
60714;SDS011;46564;53.096;8.246;2023-07-28T20:34:55;6.32;;;3.40;;
60714;SDS011;46564;53.096;8.246;2023-07-28T20:39:57;11.38;;;3.55;;
60714;SDS011;46564;53.096;8.246;2023-07-28T20:44:58;7.07;;;3.53;;
60714;SDS011;46564;53.096;8.246;2023-07-28T20:50:00;8.07;;;3.67;;
60714;SDS011;46564;53.096;8.246;2023-07-28T20:55:01;7.57;;;3.70;;
60714;SDS011;46564;53.096;8.246;2023-07-28T21:00:04;9.77;;;4.25;;
60714;SDS011;46564;53.096;8.246;2023-07-28T21:05:05;8.50;;;4.57;;
60714;SDS011;46564;53.096;8.246;2023-07-28T21:10:07;9.45;;;4.13;;
60714;SDS011;46564;53.096;8.246;2023-07-28T21:15:09;9.48;;;4.57;;
60714;SDS011;46564;53.096;8.246;2023-07-28T21:20:10;9.50;;;4.75;;
60714;SDS011;46564;53.096;8.246;2023-07-28T21:25:12;10.65;;;5.15;;
60714;SDS011;46564;53.096;8.246;2023-07-28T21:30:14;12.50;;;5.30;;
60714;SDS011;46564;53.096;8.246;2023-07-28T21:35:15;9.65;;;5.22;;
60714;SDS011;46564;53.096;8.246;2023-07-28T21:40:17;10.82;;;5.72;;
60714;SDS011;46564;53.096;8.246;2023-07-28T21:45:19;12.18;;;4.55;;
60714;SDS011;46564;53.096;8.246;2023-07-28T21:50:20;13.05;;;5.35;;
60714;SDS011;46564;53.096;8.246;2023-07-28T21:55:22;14.05;;;6.13;;
60714;SDS011;46564;53.096;8.246;2023-07-28T22:00:23;11.68;;;5.65;;
60714;SDS011;46564;53.096;8.246;2023-07-28T22:05:24;12.32;;;5.60;;
60714;SDS011;46564;53.096;8.246;2023-07-28T22:10:26;11.50;;;5.78;;
60714;SDS011;46564;53.096;8.246;2023-07-28T22:15:27;12.80;;;6.30;;
60714;SDS011;46564;53.096;8.246;2023-07-28T22:20:30;12.80;;;5.90;;
60714;SDS011;46564;53.096;8.246;2023-07-28T22:25:41;14.23;;;6.43;;
60714;SDS011;46564;53.096;8.246;2023-07-28T22:30:44;16.08;;;6.63;;
60714;SDS011;46564;53.096;8.246;2023-07-28T22:35:46;12.80;;;7.00;;
60714;SDS011;46564;53.096;8.246;2023-07-28T22:40:49;13.07;;;6.90;;
60714;SDS011;46564;53.096;8.246;2023-07-28T22:45:50;14.73;;;7.13;;
60714;SDS011;46564;53.096;8.246;2023-07-28T22:50:52;13.23;;;7.10;;
60714;SDS011;46564;53.096;8.246;2023-07-28T22:55:54;11.55;;;5.97;;
60714;SDS011;46564;53.096;8.246;2023-07-28T23:00:55;13.75;;;7.32;;
60714;SDS011;46564;53.096;8.246;2023-07-28T23:05:57;17.35;;;6.30;;
60714;SDS011;46564;53.096;8.246;2023-07-28T23:10:58;12.32;;;6.65;;
60714;SDS011;46564;53.096;8.246;2023-07-28T23:16:00;13.55;;;6.97;;
60714;SDS011;46564;53.096;8.246;2023-07-28T23:21:02;20.00;;;7.18;;
60714;SDS011;46564;53.096;8.246;2023-07-28T23:26:03;12.48;;;7.05;;
60714;SDS011;46564;53.096;8.246;2023-07-28T23:31:14;18.63;;;7.40;;
60714;SDS011;46564;53.096;8.246;2023-07-28T23:36:18;13.38;;;7.38;;
60714;SDS011;46564;53.096;8.246;2023-07-28T23:41:19;14.52;;;7.70;;
60714;SDS011;46564;53.096;8.246;2023-07-28T23:46:21;13.73;;;7.03;;
60714;SDS011;46564;53.096;8.246;2023-07-28T23:51:22;16.00;;;8.15;;
60714;SDS011;46564;53.096;8.246;2023-07-28T23:56:24;15.68;;;7.82;;
